Hlavní strana
METAR-TAF:

METAR-TAF

Letiště :

Kristianstad, Švédsko

zeměpisná šířka: 55-55N, zeměpisná délka: 014-05E, výška: 23 m

Aktuální stav počasí

Zpráva byla vytvořena před 29 minutami, v 17:20 UTC
Západní vítr 7 kt
Teplota -1°C
Tlak 1013 hPa
Viditelnost 10 km a více
Žádná oblačnost pod 1500 m, nevyskytují se cumulonimby.

METAR: ESMK 181720Z 26007KT CAVOK M01/// Q1013

Čas: 18:49 (17:49 UTC)

Předpověď počasí

Zpráva byla vytvořena před 35 minutami, v 17:14 UTC
Předpověď platná od 18 v 18 UTC do 18 v 21 UTC
Západní vítr 7 kt
Viditelnost 10 km a více
Skoro jasno ve výšce 3000 ft

TAF: ESMK 181714Z 1818/1821 26007KT 9999 FEW030

Stav a předpovědi počasí z více než 4 000 letišť (zprávy METAR a TAF).

Červené a žluté tečky na mapě představují dostupné meteorologické stanice.

Když kurzor umístíte na tečku, zobrazí se název stanice.

Pak kliknutím zobrazíte stav a předpověď počasí.

Chcete-li změnit mapu, kliknutím na zelené tlačítko se znaménkem +mapu přiblížíte, kliknutím na zelené tlačítko se znaménkem – mapu oddálíte a kliknutím na zelené šipky přejdete na sousední mapy.


METAR-TAF: